Time;durP1;ratioP1;P1;durP2;ratioP2;P2;SDS_P1;SDS_P2;PMS_P1;PMS_P2;Temp;Humidity;BMP_temperature;BMP_pressure;BME280_temperature;BME280_humidity;BME280_pressure;Samples;Min_cycle;Max_cycle;Signal;HPM_P1;HPM_P2
2021/12/15 00:01:47;;;;;;;;;;;2.60;99.90;;;;;;6022236;23;19925;-85
2021/12/15 00:04:15;;;;;;;;;;;2.60;99.90;;;;;;6096089;23;20273;-86
2021/12/15 00:06:43;;;;;;;;;;;2.60;99.90;;;;;;6076645;23;19925;-86
2021/12/15 00:09:12;;;;;;;;;;;2.50;99.90;;;;;;6079943;23;19929;-86
2021/12/15 00:11:40;;;;;;;;;;;2.50;99.90;;;;;;6098249;23;19925;-85
2021/12/15 00:14:09;;;;;;;;;;;2.50;99.90;;;;;;6078458;23;19921;-85
2021/12/15 00:16:37;;;;;;;;;;;2.50;99.90;;;;;;6069944;23;20345;-86
2021/12/15 00:19:06;;;;;;;;;;;2.50;99.90;;;;;;6100441;23;19928;-86
2021/12/15 00:21:37;;;;;;;;;;;2.50;99.90;;;;;;6045759;23;20542;-86
2021/12/15 00:24:05;;;;;;;;;;;2.50;99.90;;;;;;6094825;23;19948;-86
2021/12/15 00:26:33;;;;;;;;;;;2.50;99.90;;;;;;6045590;23;19925;-84
2021/12/15 00:29:02;;;;;;;;;;;2.50;99.90;;;;;;6079313;23;19921;-86
2021/12/15 00:31:32;;;;;;;;;;;2.50;99.90;;;;;;6098756;23;19929;-85
2021/12/15 00:34:01;;;;;;;;;;;2.50;99.90;;;;;;6079537;23;19930;-85
2021/12/15 00:36:29;;;;;;;;;;;2.50;99.90;;;;;;6069367;23;19921;-85
2021/12/15 00:38:57;;;;;;;;;;;2.50;99.90;;;;;;6045291;23;19925;-85
2021/12/15 00:41:25;;;;;;;;;;;2.50;99.90;;;;;;6045441;23;19932;-86
2021/12/15 00:43:52;;;;;;;;;;;2.50;99.90;;;;;;6071151;23;19921;-86
2021/12/15 00:46:21;;;;;;;;;;;2.50;99.90;;;;;;6102908;23;19925;-86
2021/12/15 00:48:49;;;;;;;;;;;2.50;99.90;;;;;;6046011;23;19925;-86
2021/12/15 00:51:18;;;;;;;;;;;2.50;99.90;;;;;;6099367;23;19929;-86
2021/12/15 00:53:45;;;;;;;;;;;2.50;99.90;;;;;;6104735;23;20334;-85
2021/12/15 00:56:13;;;;;;;;;;;2.50;99.90;;;;;;6069877;23;19925;-85
2021/12/15 00:58:42;;;;;;;;;;;2.50;99.90;;;;;;6063453;23;19921;-86
2021/12/15 01:01:09;;;;;;;;;;;2.50;99.90;;;;;;6064569;23;19926;-85
2021/12/15 01:03:37;;;;;;;;;;;2.50;99.90;;;;;;6064287;23;19921;-85
2021/12/15 01:06:09;;;;;;;;;;;2.50;99.90;;;;;;6017202;23;19925;-86
2021/12/15 01:08:41;;;;;;;;;;;2.50;99.90;;;;;;6064491;23;20353;-85
2021/12/15 01:11:21;;;;;;;;;;;2.60;99.90;;;;;;6065369;23;19928;-86
2021/12/15 01:22:27;;;;;;;;;;;2.60;99.90;;;;;;5977171;23;19930;-85
2021/12/15 01:24:57;;;;;;;;;;;2.60;99.90;;;;;;6015522;23;19926;-86
2021/12/15 01:27:40;;;;;;;;;;;2.60;99.90;;;;;;5969923;24;19923;-85
2021/12/15 01:30:53;;;;;;;;;;;2.60;99.90;;;;;;5952635;24;19923;-85
2021/12/15 01:34:05;;;;;;;;;;;2.50;99.90;;;;;;5948737;24;19926;-86
2021/12/15 01:37:06;;;;;;;;;;;2.50;99.90;;;;;;5896668;24;19923;-85
2021/12/15 01:39:36;;;;;;;;;;;2.60;99.90;;;;;;5998659;23;19960;-86
2021/12/15 01:42:04;;;;;;;;;;;2.60;99.90;;;;;;5957695;23;19947;-84
2021/12/15 01:47:19;;;;;;;;;;;2.60;99.90;;;;;;6000380;23;19921;-86
2021/12/15 01:49:49;;;;;;;;;;;2.50;99.90;;;;;;6017185;23;19925;-86
2021/12/15 01:52:21;;;;;;;;;;;2.50;99.90;;;;;;6086193;23;19933;-86
2021/12/15 01:54:51;;;;;;;;;;;2.50;99.90;;;;;;6040029;23;20269;-86
2021/12/15 01:57:19;;;;;;;;;;;2.50;99.90;;;;;;6039643;23;19964;-86
2021/12/15 01:59:47;;;;;;;;;;;2.60;99.90;;;;;;6067034;23;19925;-85
2021/12/15 02:02:16;;;;;;;;;;;2.60;99.90;;;;;;6074184;23;19921;-85
2021/12/15 02:04:44;;;;;;;;;;;2.60;99.90;;;;;;6074323;23;19925;-86
2021/12/15 02:07:15;;;;;;;;;;;2.60;99.90;;;;;;6069020;23;19933;-85
2021/12/15 02:10:01;;;;;;;;;;;2.60;99.90;;;;;;6065404;23;20376;-85
2021/12/15 02:12:49;;;;;;;;;;;2.60;99.90;;;;;;6068651;23;20274;-85
2021/12/15 02:15:24;;;;;;;;;;;2.60;99.90;;;;;;6068199;23;20564;-85
2021/12/15 02:17:52;;;;;;;;;;;2.60;99.90;;;;;;6040333;23;20353;-85
2021/12/15 02:20:30;;;;;;;;;;;2.60;99.90;;;;;;6039479;23;19925;-85
2021/12/15 02:22:57;;;;;;;;;;;2.60;99.90;;;;;;6016361;23;19922;-85
2021/12/15 02:25:27;;;;;;;;;;;2.60;99.90;;;;;;6063846;23;20469;-86
2021/12/15 02:27:55;;;;;;;;;;;2.60;99.90;;;;;;6063651;23;19921;-85
2021/12/15 02:38:32;;;;;;;;;;;2.80;99.90;;;;;;6073578;23;19932;-85
2021/12/15 02:41:08;;;;;;;;;;;2.80;99.90;;;;;;6073618;23;19925;-85
2021/12/15 02:43:37;;;;;;;;;;;2.80;99.90;;;;;;6038787;23;19945;-85
2021/12/15 02:46:05;;;;;;;;;;;2.80;99.90;;;;;;6062969;23;19922;-84
2021/12/15 02:48:32;;;;;;;;;;;2.80;99.90;;;;;;6076159;23;19925;-85
2021/12/15 02:51:00;;;;;;;;;;;2.70;99.90;;;;;;6071174;23;20269;-84
2021/12/15 02:53:27;;;;;;;;;;;2.70;99.90;;;;;;6075137;23;19922;-85
2021/12/15 02:55:55;;;;;;;;;;;2.70;99.90;;;;;;6041649;23;19932;-86
2021/12/15 02:58:23;;;;;;;;;;;2.70;99.90;;;;;;6064164;23;19925;-86
2021/12/15 03:01:03;;;;;;;;;;;2.70;99.90;;;;;;6076932;23;19929;-85
2021/12/15 03:04:08;;;;;;;;;;;2.70;99.90;;;;;;6065172;23;19937;-85
2021/12/15 03:06:39;;;;;;;;;;;2.70;99.90;;;;;;6066952;23;19925;-85
2021/12/15 03:17:22;;;;;;;;;;;2.60;99.90;;;;;;6015406;23;19923;-85
2021/12/15 03:19:51;;;;;;;;;;;2.60;99.90;;;;;;6069776;23;19929;-85
2021/12/15 03:22:19;;;;;;;;;;;2.60;99.90;;;;;;6041341;23;19933;-85
2021/12/15 03:24:47;;;;;;;;;;;2.70;99.90;;;;;;6018081;23;19922;-85
2021/12/15 03:27:19;;;;;;;;;;;2.70;99.90;;;;;;6068202;23;19922;-85
2021/12/15 03:35:48;;;;;;;;;;;2.70;99.90;;;;;;6065215;23;19926;-85
2021/12/15 03:38:15;;;;;;;;;;;2.70;99.90;;;;;;6073719;23;19932;-85
2021/12/15 03:40:43;;;;;;;;;;;2.70;99.90;;;;;;6065544;23;19926;-85
2021/12/15 03:43:12;;;;;;;;;;;2.70;99.90;;;;;;6069471;23;19922;-85
2021/12/15 03:45:43;;;;;;;;;;;2.80;99.90;;;;;;6041251;23;20570;-85
2021/12/15 03:48:13;;;;;;;;;;;2.80;99.90;;;;;;6066254;23;19968;-85
2021/12/15 03:50:42;;;;;;;;;;;2.70;99.90;;;;;;6041042;23;20360;-85
2021/12/15 03:53:11;;;;;;;;;;;2.70;99.90;;;;;;6075042;23;20250;-85
2021/12/15 03:55:39;;;;;;;;;;;2.60;99.90;;;;;;6040682;23;19925;-84
2021/12/15 03:58:10;;;;;;;;;;;2.60;99.90;;;;;;6039975;23;19921;-85
2021/12/15 04:00:39;;;;;;;;;;;2.60;99.90;;;;;;6076350;23;19926;-85
2021/12/15 04:03:18;;;;;;;;;;;2.60;99.90;;;;;;6064661;23;19926;-85
2021/12/15 04:05:46;;;;;;;;;;;2.70;99.90;;;;;;6076786;23;20475;-85
2021/12/15 04:08:14;;;;;;;;;;;2.60;99.90;;;;;;6067193;23;20246;-85
2021/12/15 04:10:42;;;;;;;;;;;2.60;99.90;;;;;;6072859;23;19946;-85
2021/12/15 04:13:12;;;;;;;;;;;2.70;99.90;;;;;;6075651;23;19921;-85
2021/12/15 04:15:44;;;;;;;;;;;2.70;99.90;;;;;;6068268;23;19922;-85
2021/12/15 04:18:14;;;;;;;;;;;2.70;99.90;;;;;;6041621;23;19926;-85
2021/12/15 04:20:41;;;;;;;;;;;2.70;99.90;;;;;;6051355;23;19933;-85
2021/12/15 04:23:10;;;;;;;;;;;2.70;99.90;;;;;;6064395;23;19933;-85
2021/12/15 04:25:40;;;;;;;;;;;2.70;99.90;;;;;;6099101;23;19933;-85
2021/12/15 04:28:12;;;;;;;;;;;2.70;99.90;;;;;;6040385;23;19928;-85
2021/12/15 04:30:43;;;;;;;;;;;2.80;99.90;;;;;;6072161;23;19932;-85
2021/12/15 04:33:20;;;;;;;;;;;2.80;99.90;;;;;;6076389;23;19932;-85
2021/12/15 04:35:49;;;;;;;;;;;2.70;99.90;;;;;;6041038;23;19922;-85
2021/12/15 04:38:16;;;;;;;;;;;2.70;99.90;;;;;;6074856;23;19945;-85
2021/12/15 04:40:44;;;;;;;;;;;2.70;99.90;;;;;;6041011;23;19933;-86
2021/12/15 04:43:12;;;;;;;;;;;2.60;99.90;;;;;;6069250;23;19930;-85
2021/12/15 04:45:39;;;;;;;;;;;2.60;99.90;;;;;;6076343;23;20257;-85
2021/12/15 04:48:07;;;;;;;;;;;2.70;99.90;;;;;;6068036;23;19925;-85
2021/12/15 04:50:36;;;;;;;;;;;2.70;99.90;;;;;;6064143;23;19933;-86
2021/12/15 04:53:04;;;;;;;;;;;2.70;99.90;;;;;;6076273;23;19926;-85
2021/12/15 04:55:38;;;;;;;;;;;2.70;99.90;;;;;;6069334;23;19925;-85
2021/12/15 04:58:19;;;;;;;;;;;2.70;99.90;;;;;;6085201;23;20340;-85
2021/12/15 05:01:27;;;;;;;;;;;2.70;99.90;;;;;;6105168;23;19921;-86
2021/12/15 05:04:34;;;;;;;;;;;2.70;99.90;;;;;;6095369;23;19926;-85
2021/12/15 05:07:07;;;;;;;;;;;2.80;99.90;;;;;;6099889;23;19932;-85
2021/12/15 05:09:35;;;;;;;;;;;2.80;99.90;;;;;;6105196;23;19925;-86
2021/12/15 05:12:03;;;;;;;;;;;2.70;99.90;;;;;;6094689;23;19925;-85
2021/12/15 05:14:30;;;;;;;;;;;2.70;99.90;;;;;;6102598;23;19970;-84
2021/12/15 05:16:58;;;;;;;;;;;2.70;99.90;;;;;;6079736;23;19925;-85
2021/12/15 05:19:27;;;;;;;;;;;2.70;99.90;;;;;;6045615;23;19932;-87
2021/12/15 05:21:57;;;;;;;;;;;2.70;99.90;;;;;;6056068;23;19932;-86
2021/12/15 05:27:05;;;;;;;;;;;2.70;99.90;;;;;;6100827;23;20359;-85
2021/12/15 05:29:32;;;;;;;;;;;2.70;99.90;;;;;;6104736;23;19936;-85
2021/12/15 05:32:00;;;;;;;;;;;2.80;99.90;;;;;;6095139;23;20257;-81
2021/12/15 05:34:28;;;;;;;;;;;2.80;99.90;;;;;;6101948;23;19921;-81
2021/12/15 05:36:56;;;;;;;;;;;2.90;99.90;;;;;;6104331;23;19921;-81
2021/12/15 05:39:25;;;;;;;;;;;2.90;99.90;;;;;;6098744;23;19965;-81
2021/12/15 05:41:53;;;;;;;;;;;2.90;99.90;;;;;;6104239;23;19925;-81
2021/12/15 05:44:21;;;;;;;;;;;2.90;99.90;;;;;;6094316;23;19948;-81
2021/12/15 05:46:50;;;;;;;;;;;2.90;99.90;;;;;;6101312;23;20626;-81
2021/12/15 05:49:18;;;;;;;;;;;2.90;99.90;;;;;;6104680;23;20253;-81
2021/12/15 05:51:47;;;;;;;;;;;2.90;99.90;;;;;;6071161;23;19922;-81
2021/12/15 05:54:23;;;;;;;;;;;2.90;99.90;;;;;;6102488;23;19936;-81
2021/12/15 05:56:50;;;;;;;;;;;2.90;99.90;;;;;;6103353;23;19921;-81
2021/12/15 05:59:18;;;;;;;;;;;2.90;99.90;;;;;;6072999;23;19932;-81
2021/12/15 06:01:46;;;;;;;;;;;2.80;99.90;;;;;;6104022;23;19929;-79
2021/12/15 06:04:14;;;;;;;;;;;2.80;99.90;;;;;;6094943;23;19928;-82
2021/12/15 06:06:41;;;;;;;;;;;2.80;99.90;;;;;;6101423;23;19925;-82
2021/12/15 06:09:09;;;;;;;;;;;2.80;99.90;;;;;;6078552;23;19925;-83
2021/12/15 06:11:37;;;;;;;;;;;2.80;99.90;;;;;;6096520;23;19925;-84
2021/12/15 06:14:09;;;;;;;;;;;2.90;99.90;;;;;;6104587;23;19922;-85
2021/12/15 06:16:39;;;;;;;;;;;2.90;99.90;;;;;;6080474;23;20245;-84
2021/12/15 06:19:09;;;;;;;;;;;2.90;99.90;;;;;;6076524;23;19932;-84
2021/12/15 06:21:37;;;;;;;;;;;2.90;99.90;;;;;;6106309;23;19922;-84
2021/12/15 06:24:05;;;;;;;;;;;2.80;99.90;;;;;;6072125;23;19925;-84
2021/12/15 06:26:36;;;;;;;;;;;2.80;99.90;;;;;;6025206;23;19922;-86
2021/12/15 06:29:03;;;;;;;;;;;2.80;99.90;;;;;;6048911;23;19929;-83
2021/12/15 06:31:31;;;;;;;;;;;2.80;99.90;;;;;;6075436;23;19928;-83
2021/12/15 06:33:59;;;;;;;;;;;2.80;99.90;;;;;;6071515;23;19947;-82
2021/12/15 06:36:30;;;;;;;;;;;2.80;99.90;;;;;;6071450;23;20685;-82
2021/12/15 06:38:57;;;;;;;;;;;2.80;99.90;;;;;;6070335;23;19941;-84
2021/12/15 06:41:26;;;;;;;;;;;2.80;99.90;;;;;;6047538;23;19921;-83
2021/12/15 06:43:56;;;;;;;;;;;2.90;99.90;;;;;;6097638;23;19925;-83
2021/12/15 07:00:24;;;;;;;;;;;2.90;99.90;;;;;;6023051;23;19940;-83
2021/12/15 07:03:02;;;;;;;;;;;2.90;99.90;;;;;;6102584;23;20590;-88
2021/12/15 07:05:33;;;;;;;;;;;2.80;99.90;;;;;;6097312;23;19925;-87
2021/12/15 07:08:02;;;;;;;;;;;2.80;99.90;;;;;;6072900;23;19921;-81
2021/12/15 07:10:31;;;;;;;;;;;2.80;99.90;;;;;;6043547;23;19921;-83
2021/12/15 07:13:06;;;;;;;;;;;2.90;99.90;;;;;;6089257;23;19928;-86
2021/12/15 07:15:39;;;;;;;;;;;2.80;99.90;;;;;;6066756;23;19921;-86
2021/12/15 07:18:25;;;;;;;;;;;2.80;99.90;;;;;;6046205;23;20084;-85
2021/12/15 07:21:22;;;;;;;;;;;2.80;99.90;;;;;;6041939;23;20327;-84
2021/12/15 07:23:52;;;;;;;;;;;2.80;99.90;;;;;;6019486;23;19925;-86
2021/12/15 07:26:23;;;;;;;;;;;2.90;99.90;;;;;;6060121;23;20151;-88
2021/12/15 07:29:13;;;;;;;;;;;2.90;99.90;;;;;;6074937;23;19921;-87
2021/12/15 07:31:45;;;;;;;;;;;2.90;99.90;;;;;;6043943;23;19921;-85
2021/12/15 07:34:20;;;;;;;;;;;2.90;99.90;;;;;;6067235;23;19925;-91
2021/12/15 07:36:53;;;;;;;;;;;3.00;99.90;;;;;;6073304;23;20277;-85
2021/12/15 07:40:11;;;;;;;;;;;3.00;99.90;;;;;;6066834;23;20102;-92
2021/12/15 07:46:56;;;;;;;;;;;3.10;99.90;;;;;;6012480;23;20230;-89
2021/12/15 07:49:32;;;;;;;;;;;3.10;99.90;;;;;;6038785;23;19925;-84
2021/12/15 07:52:02;;;;;;;;;;;3.10;99.90;;;;;;6064617;23;19921;-84
2021/12/15 07:54:32;;;;;;;;;;;3.20;99.90;;;;;;6037998;23;19933;-83
2021/12/15 07:57:07;;;;;;;;;;;3.20;99.90;;;;;;6010926;23;19929;-85
2021/12/15 07:59:36;;;;;;;;;;;3.20;99.90;;;;;;6013029;23;19925;-85
2021/12/15 08:02:04;;;;;;;;;;;3.20;99.90;;;;;;6019087;23;19933;-85
2021/12/15 08:04:32;;;;;;;;;;;3.30;99.90;;;;;;6034430;23;19926;-84
2021/12/15 08:06:59;;;;;;;;;;;3.30;99.90;;;;;;6040057;23;19929;-86
2021/12/15 08:09:27;;;;;;;;;;;3.30;99.90;;;;;;6043484;23;20266;-87
2021/12/15 08:12:19;;;;;;;;;;;3.30;99.90;;;;;;6026903;23;19926;-87
2021/12/15 08:15:08;;;;;;;;;;;3.20;99.90;;;;;;6013356;23;19925;-87
2021/12/15 08:17:51;;;;;;;;;;;3.20;99.90;;;;;;6015304;23;19926;-85
2021/12/15 08:20:41;;;;;;;;;;;3.30;99.90;;;;;;5954617;23;19926;-87
2021/12/15 08:23:34;;;;;;;;;;;3.20;99.90;;;;;;5987213;23;19922;-87
2021/12/15 08:55:29;;;;;;;;;;;3.30;99.90;;;;;;5893778;24;20352;-87
2021/12/15 09:04:31;;;;;;;;;;;3.30;99.90;;;;;;5869596;24;19926;-85
2021/12/15 09:26:59;;;;;;;;;;;3.50;99.90;;;;;;5658822;25;19919;-88
2021/12/15 09:34:30;;;;;;;;;;;3.60;99.90;;;;;;5844659;24;19924;-88
2021/12/15 10:05:01;;;;;;;;;;;3.70;99.90;;;;;;5780039;24;19928;-87
2021/12/15 10:22:27;;;;;;;;;;;;;;;;;;;;;
2021/12/15 10:49:17;;;;;;;;;;;;;;;;;;;;;
2021/12/15 10:53:38;;;;;;;;;;;;;;;;;;;;;
2021/12/15 11:01:00;;;;;;;;;;;;;;;;;;;;;
2021/12/15 11:05:25;;;;;;;;;;;4.00;99.90;;;;;;6100148;23;19924;-90
2021/12/15 11:14:30;;;;;;;;;;;;;;;;;;;;;
2021/12/15 11:19:00;;;;;;;;;;;;;;;;;;;;;
2021/12/15 11:27:52;;;;;;;;;;;;;;;;;;;;;
2021/12/15 11:32:26;;;;;;;;;;;;;;;;;;;;;
2021/12/15 11:36:54;;;;;;;;;;;4.70;99.90;;;;;;6039139;23;19921;-88
2021/12/15 11:40:51;;;;;;;;;;;4.70;99.90;;;;;;5883384;24;19944;-89
2021/12/15 11:52:06;;;;;;;;;;;4.50;99.90;;;;;;5900292;24;19923;-88
2021/12/15 11:54:53;;;;;;;;;;;4.40;99.90;;;;;;5968302;23;20265;-88
2021/12/15 11:57:51;;;;;;;;;;;4.30;99.90;;;;;;6028700;23;19921;-84
2021/12/15 12:00:51;;;;;;;;;;;4.40;99.90;;;;;;5936795;24;19931;-90
2021/12/15 12:04:10;;;;;;;;;;;4.40;99.90;;;;;;5936890;24;20231;-88
2021/12/15 12:07:11;;;;;;;;;;;4.40;99.90;;;;;;5948134;24;19926;-87
2021/12/15 12:09:54;;;;;;;;;;;4.40;99.90;;;;;;5904730;24;19934;-86
2021/12/15 12:12:34;;;;;;;;;;;4.40;99.90;;;;;;5945762;23;19927;-88
2021/12/15 12:15:05;;;;;;;;;;;4.40;99.90;;;;;;5952296;24;20291;-88
2021/12/15 12:17:39;;;;;;;;;;;4.40;99.90;;;;;;5956401;23;19927;-86
2021/12/15 12:20:15;;;;;;;;;;;4.40;99.90;;;;;;5946679;24;19934;-88
2021/12/15 12:23:04;;;;;;;;;;;4.50;99.90;;;;;;5947567;24;20109;-85
2021/12/15 12:25:45;;;;;;;;;;;4.50;99.90;;;;;;5925753;24;20376;-86
2021/12/15 12:28:17;;;;;;;;;;;4.40;99.90;;;;;;5947574;24;19927;-86
2021/12/15 12:30:50;;;;;;;;;;;4.40;99.90;;;;;;5934247;23;19934;-87
2021/12/15 12:33:19;;;;;;;;;;;4.40;99.90;;;;;;6074718;23;19922;-88
2021/12/15 12:36:25;;;;;;;;;;;4.40;99.90;;;;;;6011329;23;19933;-88
2021/12/15 12:39:12;;;;;;;;;;;4.50;99.90;;;;;;5933999;24;19923;-86
2021/12/15 12:42:59;;;;;;;;;;;4.40;99.90;;;;;;5816285;24;19927;-85
2021/12/15 12:46:16;;;;;;;;;;;4.40;99.90;;;;;;5843101;24;20831;-88
2021/12/15 13:04:47;;;;;;;;;;;4.30;99.90;;;;;;5950840;24;19918;-90
2021/12/15 13:10:51;;;;;;;;;;;4.10;99.90;;;;;;5981228;24;19933;-88
2021/12/15 13:13:26;;;;;;;;;;;4.20;99.90;;;;;;5952843;24;20326;-89
2021/12/15 13:16:15;;;;;;;;;;;4.20;99.90;;;;;;5952139;23;19927;-89
2021/12/15 13:19:12;;;;;;;;;;;4.30;99.90;;;;;;5940734;24;19926;-90
2021/12/15 13:22:42;;;;;;;;;;;4.30;99.90;;;;;;5953305;23;19937;-88
2021/12/15 13:28:47;;;;;;;;;;;4.30;99.90;;;;;;6004647;23;20257;-89
2021/12/15 13:31:38;;;;;;;;;;;4.30;99.90;;;;;;5983647;23;19922;-90
2021/12/15 13:35:09;;;;;;;;;;;4.30;99.90;;;;;;5923734;23;19923;-90
2021/12/15 13:37:48;;;;;;;;;;;4.30;99.90;;;;;;5923977;24;19930;-90
2021/12/15 13:40:38;;;;;;;;;;;4.20;99.90;;;;;;5922298;23;19922;-87
2021/12/15 13:43:25;;;;;;;;;;;4.30;99.90;;;;;;5922126;24;19923;-89
2021/12/15 13:45:53;;;;;;;;;;;4.30;99.90;;;;;;5995232;23;20633;-87
2021/12/15 13:48:39;;;;;;;;;;;4.40;99.90;;;;;;6008764;23;19921;-86
2021/12/15 13:51:06;;;;;;;;;;;4.30;99.90;;;;;;6038788;23;19922;-88
2021/12/15 13:53:35;;;;;;;;;;;4.40;99.90;;;;;;6044612;23;19926;-86
2021/12/15 13:56:04;;;;;;;;;;;4.40;99.90;;;;;;6036853;23;20500;-88
2021/12/15 13:58:32;;;;;;;;;;;4.40;99.90;;;;;;6040870;23;19929;-88
2021/12/15 14:01:02;;;;;;;;;;;4.40;99.90;;;;;;6019218;23;19926;-87
2021/12/15 14:03:41;;;;;;;;;;;4.30;99.90;;;;;;6038512;23;19933;-88
2021/12/15 14:06:13;;;;;;;;;;;4.30;99.90;;;;;;6033273;23;19922;-88
2021/12/15 14:08:50;;;;;;;;;;;4.30;99.90;;;;;;6018525;23;19933;-87
2021/12/15 14:11:23;;;;;;;;;;;4.30;99.90;;;;;;6013514;23;20253;-87
2021/12/15 14:13:53;;;;;;;;;;;4.40;99.90;;;;;;6031821;23;19926;-86
2021/12/15 14:16:34;;;;;;;;;;;4.40;99.90;;;;;;6010136;23;20330;-86
2021/12/15 14:19:06;;;;;;;;;;;4.40;99.90;;;;;;6015290;23;20250;-88
2021/12/15 14:21:38;;;;;;;;;;;4.30;99.90;;;;;;6043753;23;19926;-88
2021/12/15 14:24:07;;;;;;;;;;;4.20;99.90;;;;;;5986541;23;19926;-88
2021/12/15 14:26:42;;;;;;;;;;;4.30;99.90;;;;;;5985447;23;19938;-87
2021/12/15 14:29:15;;;;;;;;;;;4.30;99.90;;;;;;5984097;23;19922;-86
2021/12/15 14:31:51;;;;;;;;;;;4.20;99.90;;;;;;6036780;23;19922;-87
2021/12/15 14:34:24;;;;;;;;;;;4.30;99.90;;;;;;5962091;23;19922;-87
2021/12/15 14:37:02;;;;;;;;;;;4.30;99.90;;;;;;6018821;23;19926;-89
2021/12/15 14:39:43;;;;;;;;;;;4.20;99.90;;;;;;5964954;23;19933;-89
2021/12/15 14:42:12;;;;;;;;;;;4.20;99.90;;;;;;5992616;23;20409;-89
2021/12/15 14:44:42;;;;;;;;;;;4.30;99.90;;;;;;6045510;23;19963;-89
2021/12/15 14:47:14;;;;;;;;;;;4.20;99.90;;;;;;5988080;23;19926;-87
2021/12/15 14:49:45;;;;;;;;;;;4.20;99.90;;;;;;6021602;23;19933;-88
2021/12/15 14:52:15;;;;;;;;;;;4.20;99.90;;;;;;6033954;23;19922;-88
2021/12/15 14:54:43;;;;;;;;;;;4.20;99.90;;;;;;6063852;23;19932;-89
2021/12/15 14:57:18;;;;;;;;;;;4.10;99.90;;;;;;6024699;23;19925;-89
2021/12/15 14:59:48;;;;;;;;;;;4.10;99.90;;;;;;6067790;23;19933;-88
2021/12/15 15:02:24;;;;;;;;;;;4.10;99.90;;;;;;6039509;23;20254;-90
2021/12/15 15:04:57;;;;;;;;;;;4.10;99.90;;;;;;6016973;23;19976;-88
2021/12/15 15:07:32;;;;;;;;;;;4.10;99.90;;;;;;6044606;23;20353;-89
2021/12/15 15:10:01;;;;;;;;;;;4.00;99.90;;;;;;6075013;23;19927;-88
2021/12/15 15:12:31;;;;;;;;;;;4.00;99.90;;;;;;6037348;23;19922;-88
2021/12/15 15:15:01;;;;;;;;;;;4.00;99.90;;;;;;6017276;23;19921;-88
2021/12/15 15:17:33;;;;;;;;;;;4.00;99.90;;;;;;6040356;23;19933;-89
2021/12/15 15:20:20;;;;;;;;;;;3.90;99.90;;;;;;6066410;23;19925;-87
2021/12/15 15:22:50;;;;;;;;;;;3.90;99.90;;;;;;6015597;23;19929;-87
2021/12/15 15:25:19;;;;;;;;;;;3.90;99.90;;;;;;6040461;23;20337;-89
2021/12/15 15:27:52;;;;;;;;;;;3.80;99.90;;;;;;6040302;23;19932;-89
2021/12/15 15:30:23;;;;;;;;;;;3.80;99.90;;;;;;6072810;23;19921;-89
2021/12/15 15:32:57;;;;;;;;;;;3.90;99.90;;;;;;6075565;23;19964;-88
2021/12/15 15:35:27;;;;;;;;;;;3.90;99.90;;;;;;6069247;23;19925;-88
2021/12/15 15:37:56;;;;;;;;;;;3.90;99.90;;;;;;6072973;23;19925;-87
2021/12/15 15:40:27;;;;;;;;;;;3.90;99.90;;;;;;6014937;23;19932;-88
2021/12/15 15:43:10;;;;;;;;;;;3.90;99.90;;;;;;6061443;23;19928;-88
2021/12/15 15:45:39;;;;;;;;;;;3.90;99.90;;;;;;6063304;23;20380;-88
2021/12/15 15:48:09;;;;;;;;;;;3.90;99.90;;;;;;6015456;23;19933;-88
2021/12/15 15:50:38;;;;;;;;;;;3.90;99.90;;;;;;6069272;23;20273;-89
2021/12/15 15:53:07;;;;;;;;;;;3.90;99.90;;;;;;6016134;23;19966;-89
2021/12/15 15:55:35;;;;;;;;;;;3.90;99.90;;;;;;6060579;23;19922;-88
2021/12/15 15:58:06;;;;;;;;;;;3.80;99.90;;;;;;6071547;23;20257;-87
2021/12/15 16:00:39;;;;;;;;;;;3.80;99.90;;;;;;6038080;23;19933;-91
2021/12/15 16:03:16;;;;;;;;;;;3.90;99.90;;;;;;6062987;23;19925;-90
2021/12/15 16:05:44;;;;;;;;;;;3.80;99.90;;;;;;6096922;23;19930;-90
2021/12/15 16:08:13;;;;;;;;;;;3.80;99.90;;;;;;6050308;23;19921;-90
2021/12/15 16:10:44;;;;;;;;;;;3.80;99.90;;;;;;6041163;23;19926;-87
2021/12/15 16:13:18;;;;;;;;;;;3.80;99.90;;;;;;6036315;23;19960;-86
2021/12/15 16:15:57;;;;;;;;;;;3.80;99.90;;;;;;6087645;23;19925;-88
2021/12/15 16:18:25;;;;;;;;;;;3.80;99.90;;;;;;6015701;23;19951;-92
2021/12/15 16:23:29;;;;;;;;;;;3.70;99.90;;;;;;6040457;23;19925;-88
2021/12/15 16:25:58;;;;;;;;;;;3.80;99.90;;;;;;6038410;23;19925;-89
2021/12/15 16:28:30;;;;;;;;;;;3.80;99.90;;;;;;6013498;23;19921;-90
2021/12/15 16:30:58;;;;;;;;;;;3.80;99.90;;;;;;6067278;23;19930;-87
2021/12/15 16:33:28;;;;;;;;;;;3.80;99.90;;;;;;6047541;23;19932;-86
2021/12/15 16:35:58;;;;;;;;;;;3.80;99.90;;;;;;6063565;23;19933;-85
2021/12/15 16:38:31;;;;;;;;;;;3.90;99.90;;;;;;6045908;23;19921;-86
2021/12/15 16:41:01;;;;;;;;;;;3.90;99.90;;;;;;6013729;23;20409;-88
2021/12/15 16:43:44;;;;;;;;;;;3.90;99.90;;;;;;6044187;23;19925;-88
2021/12/15 16:46:21;;;;;;;;;;;3.90;99.90;;;;;;6017276;23;19929;-87
2021/12/15 16:48:52;;;;;;;;;;;3.90;99.90;;;;;;6017554;23;19925;-87
2021/12/15 16:51:20;;;;;;;;;;;3.90;99.90;;;;;;6070606;23;19928;-85
2021/12/15 16:53:49;;;;;;;;;;;3.90;99.90;;;;;;6050017;23;19932;-85
2021/12/15 16:56:20;;;;;;;;;;;3.80;99.90;;;;;;6041302;23;19932;-83
2021/12/15 16:59:04;;;;;;;;;;;3.70;99.90;;;;;;6069675;23;19926;-82
2021/12/15 17:01:34;;;;;;;;;;;3.70;99.90;;;;;;6016463;23;20326;-82
2021/12/15 17:04:02;;;;;;;;;;;3.70;99.90;;;;;;6018347;23;19932;-83
2021/12/15 17:06:30;;;;;;;;;;;3.70;99.90;;;;;;6073504;23;19925;-82
2021/12/15 17:08:58;;;;;;;;;;;3.70;99.90;;;;;;6049812;23;19933;-84
2021/12/15 17:11:33;;;;;;;;;;;3.70;99.90;;;;;;6067281;23;19922;-83
2021/12/15 17:14:01;;;;;;;;;;;3.70;99.90;;;;;;5988667;23;19925;-84
2021/12/15 17:16:36;;;;;;;;;;;3.70;99.90;;;;;;6037644;23;19946;-84
2021/12/15 17:19:33;;;;;;;;;;;3.70;99.90;;;;;;6069762;23;20257;-82
2021/12/15 17:22:12;;;;;;;;;;;3.70;99.90;;;;;;6013411;23;19921;-86
2021/12/15 17:24:39;;;;;;;;;;;3.70;99.90;;;;;;6022484;23;19922;-84
2021/12/15 17:27:07;;;;;;;;;;;3.70;99.90;;;;;;6011051;23;20266;-84
2021/12/15 17:29:34;;;;;;;;;;;3.70;99.90;;;;;;6048308;23;19933;-83
2021/12/15 17:32:07;;;;;;;;;;;3.70;99.90;;;;;;6014047;23;20361;-83
2021/12/15 17:34:37;;;;;;;;;;;3.60;99.90;;;;;;6045402;23;19921;-82
2021/12/15 17:37:11;;;;;;;;;;;3.70;99.90;;;;;;6037853;23;20250;-82
2021/12/15 17:39:42;;;;;;;;;;;3.70;99.90;;;;;;6041880;23;20361;-82
2021/12/15 17:42:15;;;;;;;;;;;3.70;99.90;;;;;;6070572;23;19926;-83
2021/12/15 17:44:42;;;;;;;;;;;3.70;99.90;;;;;;6042429;23;20249;-83
2021/12/15 17:47:12;;;;;;;;;;;3.70;99.90;;;;;;6011593;23;20269;-86
2021/12/15 17:49:43;;;;;;;;;;;3.70;99.90;;;;;;6044630;23;19926;-83
2021/12/15 17:52:33;;;;;;;;;;;3.70;99.90;;;;;;6037560;23;19925;-84
2021/12/15 17:55:12;;;;;;;;;;;3.70;99.90;;;;;;6005783;23;19952;-84
2021/12/15 17:57:44;;;;;;;;;;;3.70;99.90;;;;;;6044138;23;19929;-84
2021/12/15 18:00:14;;;;;;;;;;;3.60;99.90;;;;;;6035673;23;19926;-84
2021/12/15 18:02:45;;;;;;;;;;;3.60;99.90;;;;;;6042433;23;19922;-84
2021/12/15 18:05:26;;;;;;;;;;;3.70;99.90;;;;;;6048889;23;19928;-84
2021/12/15 18:07:55;;;;;;;;;;;3.70;99.90;;;;;;6064603;23;19921;-84
2021/12/15 18:10:50;;;;;;;;;;;3.60;99.90;;;;;;6021633;23;19933;-83
2021/12/15 18:13:20;;;;;;;;;;;3.60;99.90;;;;;;6036112;23;19933;-82
2021/12/15 18:15:57;;;;;;;;;;;3.60;99.90;;;;;;6013608;23;19921;-83
2021/12/15 18:18:34;;;;;;;;;;;3.60;99.90;;;;;;6037010;23;20268;-83
2021/12/15 18:21:14;;;;;;;;;;;3.60;99.90;;;;;;6038320;23;19929;-82
2021/12/15 18:23:50;;;;;;;;;;;3.60;99.90;;;;;;6063874;23;19922;-83
2021/12/15 18:26:20;;;;;;;;;;;3.50;99.90;;;;;;6066672;23;19933;-82
2021/12/15 18:28:48;;;;;;;;;;;3.50;99.90;;;;;;6070753;23;19925;-82
2021/12/15 18:31:19;;;;;;;;;;;3.50;99.90;;;;;;6041282;23;20365;-86
2021/12/15 18:33:47;;;;;;;;;;;3.50;99.90;;;;;;6015320;23;19930;-87
2021/12/15 18:36:15;;;;;;;;;;;3.50;99.90;;;;;;6015624;23;19926;-87
2021/12/15 18:38:43;;;;;;;;;;;3.50;99.90;;;;;;6015235;23;19926;-88
2021/12/15 18:41:17;;;;;;;;;;;3.60;99.90;;;;;;6073043;23;19921;-88
2021/12/15 18:43:45;;;;;;;;;;;3.50;99.90;;;;;;6063064;23;19926;-88
2021/12/15 18:46:16;;;;;;;;;;;3.50;99.90;;;;;;6074419;23;20254;-87
2021/12/15 18:48:44;;;;;;;;;;;3.60;99.90;;;;;;6040779;23;19933;-87
2021/12/15 18:51:13;;;;;;;;;;;3.50;99.90;;;;;;6015794;23;19921;-87
2021/12/15 18:53:41;;;;;;;;;;;3.60;99.90;;;;;;6016769;23;19925;-88
2021/12/15 18:56:12;;;;;;;;;;;3.50;99.90;;;;;;6066564;23;19930;-88
2021/12/15 18:58:41;;;;;;;;;;;3.50;99.90;;;;;;5991747;23;20257;-87
2021/12/15 19:01:11;;;;;;;;;;;3.50;99.90;;;;;;6026511;23;19936;-87
2021/12/15 19:03:39;;;;;;;;;;;3.50;99.90;;;;;;6043429;23;19948;-88
2021/12/15 19:06:07;;;;;;;;;;;3.50;99.90;;;;;;6016159;23;19922;-88
2021/12/15 19:08:36;;;;;;;;;;;3.50;99.90;;;;;;6016127;23;19925;-88
2021/12/15 19:11:05;;;;;;;;;;;3.60;99.90;;;;;;6070249;23;19925;-88
2021/12/15 19:13:32;;;;;;;;;;;3.60;99.90;;;;;;6039593;23;19925;-87
2021/12/15 19:16:03;;;;;;;;;;;3.60;99.90;;;;;;6041839;23;19945;-87
2021/12/15 19:18:31;;;;;;;;;;;3.60;99.90;;;;;;6015908;23;19928;-87
2021/12/15 19:21:00;;;;;;;;;;;3.60;99.90;;;;;;6049487;23;19933;-85
2021/12/15 19:23:30;;;;;;;;;;;3.50;99.90;;;;;;6015779;23;19926;-85